Time;durP1;ratioP1;P1;durP2;ratioP2;P2;SDS_P1;SDS_P2;PMS_P1;PMS_P2;Temp;Humidity;BMP_temperature;BMP_pressure;BME280_temperature;BME280_humidity;BME280_pressure;Samples;Min_cycle;Max_cycle;Signal;HPM_P1;HPM_P2
2022/03/11 00:01:51;;;;;;;21.48;14.40;;;1.90;99.90;;;;;;5033545;28;20044;-74
2022/03/11 00:04:36;;;;;;;22.63;13.98;;;1.80;99.90;;;;;;5015773;28;20045;-74
2022/03/11 00:07:04;;;;;;;22.15;14.15;;;1.80;99.90;;;;;;5033345;28;20046;-74
2022/03/11 00:09:31;;;;;;;24.58;15.35;;;1.80;99.90;;;;;;5033565;28;20546;-73
2022/03/11 00:11:58;;;;;;;25.98;13.75;;;1.90;99.90;;;;;;5033086;28;20042;-78
2022/03/11 00:14:25;;;;;;;23.85;14.13;;;1.80;99.90;;;;;;5033371;28;20504;-76
2022/03/11 00:16:53;;;;;;;22.27;13.30;;;1.80;99.90;;;;;;5035359;28;20045;-80
2022/03/11 00:19:20;;;;;;;24.77;13.07;;;1.70;99.90;;;;;;5050681;28;20063;-76
2022/03/11 00:21:48;;;;;;;18.60;12.18;;;1.50;99.90;;;;;;5020126;28;20046;-81
2022/03/11 00:24:16;;;;;;;18.33;11.82;;;1.60;99.90;;;;;;5047274;28;20486;-79
2022/03/11 00:26:44;;;;;;;16.02;11.38;;;1.50;99.90;;;;;;5033372;28;20507;-75
2022/03/11 00:29:10;;;;;;;20.23;13.75;;;1.40;99.90;;;;;;5013196;28;20034;-80
2022/03/11 00:31:38;;;;;;;19.35;13.02;;;1.40;99.90;;;;;;5015953;28;20054;-81
2022/03/11 00:34:05;;;;;;;24.58;14.07;;;1.30;99.90;;;;;;5052948;28;20045;-80
2022/03/11 00:36:33;;;;;;;20.13;12.13;;;1.50;99.90;;;;;;5052842;28;20037;-78
2022/03/11 00:39:00;;;;;;;16.13;11.32;;;1.40;99.90;;;;;;5052559;28;20053;-80
2022/03/11 00:41:28;;;;;;;17.35;11.55;;;1.40;99.90;;;;;;5034296;28;20074;-79
2022/03/11 00:43:57;;;;;;;17.65;10.85;;;1.30;99.90;;;;;;5035114;28;20594;-83
2022/03/11 00:46:25;;;;;;;15.45;10.93;;;1.20;99.90;;;;;;5052540;28;20040;-74
2022/03/11 00:48:53;;;;;;;14.40;10.23;;;1.10;99.90;;;;;;5052328;28;20388;-80
2022/03/11 00:51:20;;;;;;;16.80;10.82;;;1.00;99.90;;;;;;5034691;28;20045;-78
2022/03/11 00:53:47;;;;;;;12.77;9.65;;;0.90;99.90;;;;;;5052626;28;20067;-78
2022/03/11 00:56:15;;;;;;;14.00;10.25;;;0.80;99.90;;;;;;5052552;28;20041;-76
2022/03/11 00:58:42;;;;;;;15.90;9.77;;;0.80;99.90;;;;;;5044521;28;20116;-78
2022/03/11 01:01:10;;;;;;;17.98;10.75;;;0.80;99.90;;;;;;5024745;28;20049;-78
2022/03/11 01:03:37;;;;;;;16.80;9.95;;;0.80;99.90;;;;;;5051552;28;20060;-81
2022/03/11 01:06:06;;;;;;;14.75;10.40;;;0.90;99.90;;;;;;5051305;28;20044;-74
2022/03/11 01:08:33;;;;;;;15.93;10.25;;;0.80;99.90;;;;;;5052134;28;20051;-79
2022/03/11 01:11:00;;;;;;;16.73;10.27;;;0.70;99.90;;;;;;5033997;28;20690;-76
2022/03/11 01:13:27;;;;;;;14.13;9.75;;;0.70;99.90;;;;;;5051189;28;20044;-77
2022/03/11 01:15:55;;;;;;;13.10;9.32;;;0.70;99.90;;;;;;5051439;28;20037;-75
2022/03/11 01:18:22;;;;;;;12.18;9.23;;;0.80;99.90;;;;;;5051318;28;20441;-77
2022/03/11 01:20:49;;;;;;;11.95;8.93;;;0.70;99.90;;;;;;5052691;28;20539;-77
2022/03/11 01:23:16;;;;;;;10.10;8.48;;;0.80;99.90;;;;;;5051962;28;20044;-80
2022/03/11 01:25:44;;;;;;;13.45;8.60;;;0.90;99.90;;;;;;5017633;28;20575;-82
2022/03/11 01:28:13;;;;;;;14.45;9.57;;;0.90;99.90;;;;;;5034167;28;20037;-73
2022/03/11 01:30:41;;;;;;;12.10;8.73;;;0.90;99.90;;;;;;5051111;28;20408;-79
2022/03/11 01:33:08;;;;;;;14.65;8.88;;;0.90;99.90;;;;;;5047662;28;20053;-78
2022/03/11 01:35:35;;;;;;;14.05;8.50;;;0.90;99.90;;;;;;5039596;28;20121;-75
2022/03/11 01:38:03;;;;;;;10.98;7.93;;;1.00;99.90;;;;;;5046339;28;20033;-76
2022/03/11 01:40:30;;;;;;;11.75;8.13;;;1.00;99.90;;;;;;5031759;28;20045;-82
2022/03/11 01:42:57;;;;;;;11.20;8.93;;;1.00;99.90;;;;;;5040450;28;20050;-78
2022/03/11 01:45:25;;;;;;;9.73;7.78;;;1.10;99.90;;;;;;5021728;28;20502;-81
2022/03/11 01:47:52;;;;;;;11.02;7.32;;;1.10;99.90;;;;;;5031754;28;20436;-81
2022/03/11 01:50:19;;;;;;;10.23;8.15;;;1.20;99.90;;;;;;5039172;28;20413;-78
2022/03/11 01:52:46;;;;;;;9.88;7.43;;;1.20;99.90;;;;;;5032822;28;20392;-76
2022/03/11 01:55:15;;;;;;;12.85;7.75;;;1.00;99.90;;;;;;5037732;28;20580;-81
2022/03/11 01:57:42;;;;;;;9.65;7.90;;;0.90;99.90;;;;;;5047878;28;20042;-74
2022/03/11 02:00:10;;;;;;;11.73;8.43;;;0.90;99.90;;;;;;5045186;28;20052;-77
2022/03/11 02:02:37;;;;;;;12.82;8.65;;;0.90;99.90;;;;;;5050255;28;20041;-72
2022/03/11 02:05:05;;;;;;;10.43;8.35;;;0.90;99.90;;;;;;5033224;28;20132;-74
2022/03/11 02:07:32;;;;;;;10.30;8.32;;;1.00;99.90;;;;;;5050855;28;20049;-76
2022/03/11 02:10:00;;;;;;;11.55;8.63;;;1.10;99.90;;;;;;5050710;28;20041;-76
2022/03/11 02:12:28;;;;;;;10.82;8.38;;;1.10;99.90;;;;;;5051466;28;20065;-75
2022/03/11 02:14:56;;;;;;;11.35;8.00;;;1.10;99.90;;;;;;5051142;28;20128;-76
2022/03/11 02:17:23;;;;;;;12.02;8.23;;;1.00;99.90;;;;;;5051068;28;20037;-74
2022/03/11 02:19:51;;;;;;;10.05;8.02;;;0.90;99.90;;;;;;5051269;28;20060;-73
2022/03/11 02:22:23;;;;;;;10.18;7.78;;;0.80;99.90;;;;;;5051461;28;20052;-77
2022/03/11 02:24:52;;;;;;;11.95;8.30;;;0.80;99.90;;;;;;5051294;28;20484;-75
2022/03/11 02:27:19;;;;;;;11.63;8.02;;;1.00;99.90;;;;;;5051128;28;20119;-76
2022/03/11 02:29:47;;;;;;;10.57;8.07;;;1.00;99.90;;;;;;5052374;28;20037;-76
2022/03/11 02:32:14;;;;;;;11.90;8.65;;;1.10;99.90;;;;;;5051759;28;20059;-76
2022/03/11 02:34:41;;;;;;;11.55;8.38;;;1.20;99.90;;;;;;5035031;28;20053;-76
2022/03/11 02:37:09;;;;;;;9.85;7.90;;;1.10;99.90;;;;;;5034925;28;20056;-75
2022/03/11 02:39:36;;;;;;;14.50;8.18;;;1.00;99.90;;;;;;5035054;28;20654;-74
2022/03/11 02:42:05;;;;;;;13.93;8.90;;;0.90;99.90;;;;;;5035370;28;20397;-77
2022/03/11 02:44:32;;;;;;;10.52;8.55;;;0.90;99.90;;;;;;5034804;28;20120;-75
2022/03/11 02:46:59;;;;;;;10.77;8.05;;;0.90;99.90;;;;;;5034742;28;20041;-73
2022/03/11 02:49:27;;;;;;;10.20;7.90;;;0.70;99.90;;;;;;5034969;28;20045;-77
2022/03/11 02:51:56;;;;;;;11.13;8.07;;;0.70;99.90;;;;;;5035157;28;20042;-73
2022/03/11 02:54:24;;;;;;;10.63;7.20;;;0.70;99.90;;;;;;5034712;28;20045;-76
2022/03/11 02:56:51;;;;;;;9.43;7.85;;;0.80;99.90;;;;;;5035154;28;20044;-73
2022/03/11 02:59:18;;;;;;;10.18;7.93;;;0.90;99.90;;;;;;5034506;28;20752;-72
2022/03/11 03:01:46;;;;;;;10.07;7.65;;;0.80;99.90;;;;;;5034852;28;20033;-77
2022/03/11 03:04:13;;;;;;;8.95;7.75;;;0.80;99.90;;;;;;5034764;28;20048;-77
2022/03/11 03:06:41;;;;;;;9.70;7.68;;;0.90;99.90;;;;;;5035043;28;20498;-75
2022/03/11 03:09:08;;;;;;;10.85;7.80;;;0.90;99.90;;;;;;5034721;28;20389;-73
2022/03/11 03:11:35;;;;;;;8.10;6.93;;;0.80;99.90;;;;;;5034697;28;20041;-73
2022/03/11 03:14:03;;;;;;;8.68;6.93;;;0.70;99.90;;;;;;5034627;28;20043;-76
2022/03/11 03:16:30;;;;;;;13.82;8.13;;;0.80;99.90;;;;;;5034501;28;20124;-72
2022/03/11 03:18:58;;;;;;;12.77;7.45;;;0.70;99.90;;;;;;5034167;28;20061;-74
2022/03/11 03:21:27;;;;;;;11.93;8.07;;;0.80;99.90;;;;;;5034379;28;20071;-79
2022/03/11 03:23:54;;;;;;;9.45;7.00;;;0.60;99.90;;;;;;5034504;28;20500;-73
2022/03/11 03:26:21;;;;;;;10.07;7.47;;;0.90;99.90;;;;;;5034588;28;20042;-76
2022/03/11 03:28:49;;;;;;;8.82;7.63;;;1.00;99.90;;;;;;5034105;28;20831;-72
2022/03/11 03:31:19;;;;;;;10.10;7.15;;;1.00;99.90;;;;;;5034312;28;20038;-72
2022/03/11 03:33:47;;;;;;;11.68;8.35;;;1.10;99.90;;;;;;5034071;28;20095;-76
2022/03/11 03:36:15;;;;;;;9.55;7.30;;;0.70;99.90;;;;;;5034339;28;20037;-75
2022/03/11 03:38:42;;;;;;;11.20;8.38;;;1.00;99.90;;;;;;5034853;28;20053;-74
2022/03/11 03:41:09;;;;;;;9.77;7.95;;;1.00;99.90;;;;;;5033434;28;20045;-75
2022/03/11 03:43:37;;;;;;;9.60;7.07;;;1.00;99.90;;;;;;5034029;28;20409;-74
2022/03/11 03:46:07;;;;;;;10.23;7.40;;;1.00;99.90;;;;;;5034033;28;20045;-79
2022/03/11 03:48:34;;;;;;;10.60;7.60;;;1.00;99.90;;;;;;5033661;28;20397;-74
2022/03/11 03:51:03;;;;;;;9.68;7.63;;;0.90;99.90;;;;;;5033852;28;20448;-74
2022/03/11 03:53:30;;;;;;;9.57;7.38;;;0.70;99.90;;;;;;5034043;28;20388;-74
2022/03/11 03:55:57;;;;;;;10.35;7.43;;;0.70;99.90;;;;;;5033961;28;20417;-75
2022/03/11 03:58:24;;;;;;;9.23;7.53;;;0.80;99.90;;;;;;5033754;28;20045;-74
2022/03/11 04:00:52;;;;;;;10.75;7.95;;;0.60;99.90;;;;;;5033617;28;20048;-77
2022/03/11 04:03:19;;;;;;;13.07;8.13;;;0.60;99.90;;;;;;5033457;28;20588;-81
2022/03/11 04:05:46;;;;;;;9.85;7.40;;;0.70;99.90;;;;;;5033994;28;20444;-73
2022/03/11 04:08:14;;;;;;;10.18;7.60;;;0.60;99.90;;;;;;5016266;28;20485;-76
2022/03/11 04:10:41;;;;;;;13.45;8.13;;;0.50;99.90;;;;;;5033379;28;20034;-77
2022/03/11 04:13:08;;;;;;;11.90;8.07;;;0.40;99.90;;;;;;5033854;28;20045;-76
2022/03/11 04:15:35;;;;;;;9.02;7.40;;;0.20;99.90;;;;;;5033567;28;20053;-73
2022/03/11 04:18:03;;;;;;;12.18;8.13;;;0.10;99.90;;;;;;5033348;28;20120;-76
2022/03/11 04:20:30;;;;;;;9.02;7.45;;;0.00;99.90;;;;;;5033499;28;20128;-73
2022/03/11 04:22:58;;;;;;;9.85;7.78;;;0.10;99.90;;;;;;5033973;28;20487;-83
2022/03/11 04:25:25;;;;;;;13.65;8.10;;;0.10;99.90;;;;;;5033404;28;20437;-82
2022/03/11 04:27:52;;;;;;;10.90;8.18;;;0.10;99.90;;;;;;5033241;28;20390;-80
2022/03/11 04:30:20;;;;;;;11.65;8.13;;;0.30;99.90;;;;;;5033598;28;20045;-78
2022/03/11 04:32:47;;;;;;;10.68;8.30;;;0.20;99.90;;;;;;5033293;28;20041;-80
2022/03/11 04:35:14;;;;;;;10.43;8.23;;;0.10;99.90;;;;;;5033550;28;20408;-83
2022/03/11 04:37:42;;;;;;;12.52;8.52;;;0.10;99.90;;;;;;5033707;28;20029;-82
2022/03/11 04:40:10;;;;;;;12.05;8.13;;;0.20;99.90;;;;;;5033458;28;20037;-81
2022/03/11 04:42:37;;;;;;;12.02;8.63;;;0.10;99.90;;;;;;5033327;28;20436;-82
2022/03/11 04:45:05;;;;;;;14.70;8.57;;;0.10;99.90;;;;;;5015197;28;20152;-76
2022/03/11 04:47:33;;;;;;;11.65;8.52;;;0.00;99.90;;;;;;5033052;28;20037;-76
2022/03/11 04:50:00;;;;;;;11.75;8.80;;;0.00;99.90;;;;;;5032948;28;20429;-76
2022/03/11 04:52:27;;;;;;;11.02;8.57;;;0.10;99.90;;;;;;5032288;28;20389;-74
2022/03/11 04:54:55;;;;;;;13.40;8.25;;;0.20;99.90;;;;;;5032480;28;20513;-73
2022/03/11 04:57:22;;;;;;;15.18;8.35;;;0.00;99.90;;;;;;5033199;28;20388;-77
2022/03/11 04:59:49;;;;;;;10.13;7.47;;;0.10;99.90;;;;;;5037901;28;20052;-77
2022/03/11 05:02:29;;;;;;;13.43;8.55;;;0.10;99.90;;;;;;5047944;28;20491;-81
2022/03/11 05:04:57;;;;;;;13.25;8.00;;;0.40;99.90;;;;;;5052540;28;20828;-79
2022/03/11 05:07:24;;;;;;;11.20;8.57;;;0.60;99.90;;;;;;5053198;28;20455;-83
2022/03/11 05:09:51;;;;;;;12.90;8.52;;;0.80;99.90;;;;;;5052249;28;20047;-76
2022/03/11 05:12:18;;;;;;;11.07;8.80;;;0.80;99.90;;;;;;5051956;28;20033;-84
2022/03/11 05:14:48;;;;;;;13.70;9.43;;;0.70;99.90;;;;;;5034711;28;20036;-74
2022/03/11 05:17:16;;;;;;;12.88;8.38;;;0.70;99.90;;;;;;5052266;28;20059;-76
2022/03/11 05:19:44;;;;;;;12.48;8.45;;;0.70;99.90;;;;;;5052290;28;20491;-80
2022/03/11 05:22:12;;;;;;;10.65;8.23;;;0.60;99.90;;;;;;5052421;28;20067;-79
2022/03/11 05:24:40;;;;;;;13.02;8.38;;;0.50;99.90;;;;;;5052291;28;20045;-77
2022/03/11 05:27:07;;;;;;;13.18;8.35;;;0.50;99.90;;;;;;5034342;28;20536;-79
2022/03/11 05:29:35;;;;;;;12.65;8.52;;;0.70;99.90;;;;;;5051633;28;20047;-77
2022/03/11 05:32:03;;;;;;;13.27;8.98;;;0.80;99.90;;;;;;5051877;28;20048;-82
2022/03/11 05:34:30;;;;;;;11.85;8.35;;;0.90;99.90;;;;;;5035311;28;20045;-83
2022/03/11 05:36:57;;;;;;;15.57;9.15;;;0.80;99.90;;;;;;5032089;28;20076;-82
2022/03/11 05:39:25;;;;;;;12.73;9.02;;;0.70;99.90;;;;;;5031798;28;20485;-77
2022/03/11 05:41:52;;;;;;;10.75;8.38;;;0.70;99.90;;;;;;5014383;28;20042;-78
2022/03/11 05:44:19;;;;;;;11.23;8.30;;;0.50;99.90;;;;;;5031924;28;20052;-77
2022/03/11 05:46:47;;;;;;;11.57;8.43;;;0.60;99.90;;;;;;5014881;28;20041;-79
2022/03/11 05:49:14;;;;;;;12.05;9.02;;;0.60;99.90;;;;;;5014044;28;20093;-78
2022/03/11 05:51:42;;;;;;;11.20;8.00;;;0.60;99.90;;;;;;5031954;28;20132;-75
2022/03/11 05:54:09;;;;;;;11.00;8.30;;;0.80;99.90;;;;;;5031539;28;20046;-78
2022/03/11 05:56:37;;;;;;;13.77;9.98;;;1.00;99.90;;;;;;5031993;28;20042;-76
2022/03/11 05:59:07;;;;;;;13.52;8.85;;;1.10;99.90;;;;;;5031571;28;20045;-74
2022/03/11 06:01:35;;;;;;;15.23;9.77;;;1.10;99.90;;;;;;5031525;28;20044;-78
2022/03/11 06:04:04;;;;;;;11.75;9.15;;;1.10;99.90;;;;;;5014084;28;20053;-78
2022/03/11 06:06:32;;;;;;;11.95;8.75;;;1.00;99.90;;;;;;5031168;28;20049;-82
2022/03/11 06:09:02;;;;;;;11.57;8.45;;;0.90;99.90;;;;;;5031557;28;20051;-73
2022/03/11 06:11:29;;;;;;;12.70;8.98;;;0.90;99.90;;;;;;5031172;28;20047;-75
2022/03/11 06:13:57;;;;;;;12.63;9.32;;;0.70;99.90;;;;;;5010810;28;20042;-73
2022/03/11 06:16:24;;;;;;;15.02;10.32;;;0.60;99.90;;;;;;5028067;28;20378;-74
2022/03/11 06:18:51;;;;;;;14.30;10.10;;;0.60;99.90;;;;;;5028620;28;20085;-74
2022/03/11 06:21:19;;;;;;;82.82;39.53;;;0.70;99.90;;;;;;5029220;28;20056;-81
2022/03/11 06:23:46;;;;;;;30.77;19.58;;;0.90;99.90;;;;;;5028848;28;20109;-75
2022/03/11 06:26:13;;;;;;;23.63;14.52;;;1.10;99.90;;;;;;5009880;28;20493;-76
2022/03/11 06:28:41;;;;;;;111.50;52.63;;;1.00;99.90;;;;;;5027777;28;20037;-77
2022/03/11 06:31:09;;;;;;;15.63;12.38;;;0.90;99.90;;;;;;5029272;28;20046;-76
2022/03/11 06:33:36;;;;;;;15.20;10.88;;;1.00;99.90;;;;;;5013116;28;20647;-76
2022/03/11 06:36:04;;;;;;;15.73;11.23;;;0.90;99.90;;;;;;5020607;28;20045;-75
2022/03/11 06:38:33;;;;;;;13.65;10.70;;;1.00;99.90;;;;;;5011749;28;20748;-75
2022/03/11 06:41:00;;;;;;;15.07;10.25;;;0.90;99.90;;;;;;5015626;28;20065;-74
2022/03/11 06:43:27;;;;;;;14.10;10.38;;;0.90;99.90;;;;;;5016942;28;20045;-79
2022/03/11 06:45:55;;;;;;;13.95;10.27;;;1.10;99.90;;;;;;5019379;28;20030;-80
2022/03/11 06:48:22;;;;;;;14.45;11.02;;;0.90;99.90;;;;;;5018113;28;20038;-75
2022/03/11 06:50:52;;;;;;;13.60;10.10;;;1.10;99.90;;;;;;5013240;28;20038;-74
2022/03/11 06:53:25;;;;;;;16.40;10.80;;;1.20;99.90;;;;;;5014675;28;20048;-77
2022/03/11 06:55:53;;;;;;;17.67;11.25;;;0.70;99.90;;;;;;5024346;28;20150;-74
2022/03/11 06:58:20;;;;;;;16.88;11.02;;;0.40;99.90;;;;;;5020016;28;20038;-80
2022/03/11 07:00:47;;;;;;;16.92;11.60;;;0.50;99.90;;;;;;5019341;28;20045;-74
2022/03/11 07:03:15;;;;;;;15.20;10.05;;;0.60;99.90;;;;;;5021763;28;20041;-78
2022/03/11 07:05:42;;;;;;;17.33;10.90;;;0.80;99.90;;;;;;4988999;28;20038;-74
2022/03/11 07:08:10;;;;;;;56.80;30.98;;;1.50;99.90;;;;;;5019780;28;20050;-73
2022/03/11 07:10:37;;;;;;;55.28;29.55;;;2.00;99.90;;;;;;5019261;28;20161;-78
2022/03/11 07:13:04;;;;;;;15.45;11.57;;;2.00;99.90;;;;;;5011645;28;20068;-77
2022/03/11 07:15:40;;;;;;;15.60;11.45;;;1.80;99.90;;;;;;5015341;28;20041;-74
2022/03/11 07:18:07;;;;;;;15.52;10.90;;;1.70;99.90;;;;;;5008412;28;20136;-73
2022/03/11 07:20:35;;;;;;;14.93;10.32;;;1.90;99.90;;;;;;5007360;28;20037;-80
2022/03/11 07:23:23;;;;;;;15.57;10.68;;;2.00;99.90;;;;;;5022519;28;20400;-77
2022/03/11 07:25:50;;;;;;;17.48;11.15;;;1.50;99.90;;;;;;5025461;28;20047;-84
2022/03/11 07:28:19;;;;;;;15.27;10.60;;;1.70;99.90;;;;;;5022232;28;20041;-72
2022/03/11 07:30:47;;;;;;;16.83;11.82;;;1.80;99.90;;;;;;5033080;28;20045;-77
2022/03/11 07:33:14;;;;;;;15.52;10.80;;;1.70;99.90;;;;;;5030905;28;20042;-72
2022/03/11 07:35:41;;;;;;;13.60;10.13;;;1.70;99.90;;;;;;5022423;28;20096;-72
2022/03/11 07:38:09;;;;;;;15.80;10.85;;;1.60;99.90;;;;;;5005921;28;20038;-73
2022/03/11 07:40:36;;;;;;;15.57;10.57;;;1.80;99.90;;;;;;5022935;28;20116;-74
2022/03/11 07:43:04;;;;;;;15.75;10.90;;;1.80;99.90;;;;;;5034061;28;20529;-74
2022/03/11 07:45:31;;;;;;;15.10;10.75;;;1.70;99.90;;;;;;5033607;28;20044;-76
2022/03/11 07:47:58;;;;;;;15.50;10.48;;;1.80;99.90;;;;;;5012353;28;20528;-75
2022/03/11 07:50:27;;;;;;;18.80;11.60;;;1.90;99.90;;;;;;5016896;28;20367;-75
2022/03/11 07:52:54;;;;;;;17.80;10.75;;;1.80;99.90;;;;;;5016177;28;20112;-72
2022/03/11 07:55:22;;;;;;;21.70;12.25;;;1.90;99.90;;;;;;5033367;28;20444;-71
2022/03/11 07:57:49;;;;;;;16.42;11.57;;;2.60;99.90;;;;;;5032946;28;20424;-75
2022/03/11 08:00:17;;;;;;;16.00;11.48;;;2.60;99.90;;;;;;5024917;28;20044;-74
2022/03/11 08:02:44;;;;;;;18.00;12.73;;;2.60;99.90;;;;;;5018428;28;20042;-73
2022/03/11 08:05:14;;;;;;;18.67;11.27;;;2.20;99.90;;;;;;5024462;28;20041;-74
2022/03/11 08:07:46;;;;;;;14.18;10.70;;;2.20;99.90;;;;;;5022916;28;20294;-75
2022/03/11 08:10:13;;;;;;;24.50;12.15;;;1.90;99.90;;;;;;5021413;28;20124;-71
2022/03/11 08:12:41;;;;;;;16.23;11.40;;;2.00;99.90;;;;;;5023135;28;20038;-74
2022/03/11 08:15:11;;;;;;;16.48;12.52;;;2.10;99.90;;;;;;5024136;28;20042;-74
2022/03/11 08:17:40;;;;;;;15.70;11.57;;;2.40;99.90;;;;;;5022205;28;20060;-74
2022/03/11 08:20:09;;;;;;;14.07;10.68;;;2.80;99.90;;;;;;5022781;28;20429;-74
2022/03/11 08:22:37;;;;;;;16.83;11.63;;;3.10;99.90;;;;;;5022168;28;20123;-73
2022/03/11 08:25:08;;;;;;;20.75;12.30;;;3.70;99.90;;;;;;5021217;28;20038;-74
2022/03/11 08:27:35;;;;;;;;;;;4.20;99.90;;;;;;5022643;28;20034;-72
2022/03/11 08:30:07;;;;;;;16.95;12.40;;;4.10;99.90;;;;;;5024153;28;19925;-73
2022/03/11 08:32:39;;;;;;;14.57;10.52;;;4.40;99.90;;;;;;5023428;28;20038;-76
2022/03/11 08:35:07;;;;;;;10.63;8.70;;;4.30;97.40;;;;;;5023049;28;20038;-73
2022/03/11 08:37:38;;;;;;;12.32;9.57;;;4.00;95.10;;;;;;5002696;28;20092;-73
2022/03/11 08:40:08;;;;;;;13.15;9.38;;;3.70;93.80;;;;;;5012363;28;20504;-72
2022/03/11 08:42:36;;;;;;;10.90;8.68;;;3.50;97.00;;;;;;4995296;28;20061;-74
2022/03/11 08:45:06;;;;;;;12.90;9.45;;;4.00;94.50;;;;;;4989384;28;20409;-74
2022/03/11 08:47:33;;;;;;;28.80;18.92;;;3.90;94.20;;;;;;5032718;28;20116;-71
2022/03/11 08:50:02;;;;;;;34.63;20.70;;;5.00;95.50;;;;;;5031817;28;20045;-73
2022/03/11 08:52:31;;;;;;;14.45;10.10;;;6.10;97.80;;;;;;5032868;28;20049;-74
2022/03/11 08:54:58;;;;;;;14.32;10.30;;;5.30;86.60;;;;;;5026097;28;20038;-74
2022/03/11 08:57:25;;;;;;;11.77;9.43;;;4.00;88.10;;;;;;5018803;28;20041;-74
2022/03/11 08:59:59;;;;;;;12.45;9.50;;;3.90;90.20;;;;;;5025353;28;20514;-76
2022/03/11 09:02:26;;;;;;;12.75;9.63;;;4.00;90.40;;;;;;5032298;28;20509;-77
2022/03/11 09:04:55;;;;;;;11.95;8.77;;;3.90;89.90;;;;;;5014472;28;20548;-75
2022/03/11 09:07:29;;;;;;;10.77;7.93;;;3.70;90.50;;;;;;5032663;28;20063;-74
2022/03/11 09:09:56;;;;;;;12.73;8.70;;;3.30;89.80;;;;;;5032132;28;20052;-75
2022/03/11 09:12:23;;;;;;;13.20;8.95;;;3.40;91.80;;;;;;5031938;28;20121;-75
2022/03/11 09:14:55;;;;;;;11.77;8.82;;;3.70;91.20;;;;;;5031536;28;20045;-74
2022/03/11 09:17:23;;;;;;;13.98;9.07;;;3.90;88.30;;;;;;5031924;28;20052;-73
2022/03/11 09:19:51;;;;;;;12.50;9.02;;;4.20;87.20;;;;;;5031562;28;20029;-73
2022/03/11 09:22:43;;;;;;;10.88;8.18;;;4.40;83.30;;;;;;5014489;28;20632;-75
2022/03/11 09:25:13;;;;;;;11.63;7.93;;;4.60;79.70;;;;;;5031752;28;20045;-74
2022/03/11 09:27:41;;;;;;;11.25;8.45;;;4.60;78.10;;;;;;5014336;28;20789;-73
2022/03/11 09:30:09;;;;;;;14.57;9.70;;;4.70;79.60;;;;;;5031051;28;20116;-72
2022/03/11 09:32:37;;;;;;;10.18;8.13;;;4.70;78.60;;;;;;5014072;28;20045;-73
2022/03/11 09:35:08;;;;;;;11.25;8.60;;;4.60;77.80;;;;;;5023978;28;20141;-75
2022/03/11 09:37:36;;;;;;;13.70;8.90;;;4.60;78.30;;;;;;5004072;28;20045;-73
2022/03/11 09:40:05;;;;;;;11.45;8.82;;;4.60;78.30;;;;;;5021336;28;20034;-74
2022/03/11 09:42:33;;;;;;;15.27;9.00;;;4.60;78.60;;;;;;4987533;28;20236;-74
2022/03/11 09:45:01;;;;;;;11.57;9.20;;;4.40;79.40;;;;;;5022741;28;20040;-74
2022/03/11 09:47:32;;;;;;;11.93;8.88;;;4.60;79.80;;;;;;5004128;28;20045;-75
2022/03/11 09:50:00;;;;;;;15.00;10.38;;;4.40;80.10;;;;;;5020704;28;20088;-72
2022/03/11 09:52:31;;;;;;;14.35;9.40;;;4.70;80.60;;;;;;5019552;28;20390;-74
2022/03/11 09:54:59;;;;;;;11.30;8.88;;;4.90;80.70;;;;;;5002248;28;20088;-75
2022/03/11 09:57:27;;;;;;;9.88;7.60;;;5.40;75.10;;;;;;5019736;28;20128;-75
2022/03/11 09:59:54;;;;;;;8.20;6.43;;;6.00;70.40;;;;;;5023348;28;20535;-73
2022/03/11 10:02:24;;;;;;;6.80;5.63;;;5.90;59.70;;;;;;4987766;28;20053;-75
2022/03/11 10:04:56;;;;;;;9.02;5.82;;;5.60;58.80;;;;;;5019584;28;20109;-71
2022/03/11 10:07:43;;;;;;;24.85;13.35;;;5.30;60.50;;;;;;5007781;28;20094;-73
2022/03/11 10:10:16;;;;;;;53.72;30.30;;;5.30;64.80;;;;;;5019719;28;20044;-73
2022/03/11 10:13:04;;;;;;;9.73;7.50;;;6.50;75.80;;;;;;5021482;28;20451;-72
2022/03/11 10:15:31;;;;;;;8.38;7.13;;;5.90;58.90;;;;;;5005666;28;20452;-73
2022/03/11 10:18:02;;;;;;;11.00;7.00;;;5.70;60.40;;;;;;5003405;28;20077;-71
2022/03/11 10:20:32;;;;;;;9.95;6.10;;;5.60;60.50;;;;;;5020497;28;20042;-71
2022/03/11 10:23:07;;;;;;;11.88;8.68;;;4.80;64.30;;;;;;5002781;28;20389;-73
2022/03/11 10:25:34;;;;;;;9.80;7.10;;;4.40;76.80;;;;;;5019996;28;20076;-71
2022/03/11 10:28:12;;;;;;;12.88;8.00;;;3.60;82.10;;;;;;5024336;28;20041;-72
2022/03/11 10:30:44;;;;;;;9.63;7.65;;;3.80;83.20;;;;;;5005591;28;20132;-73
2022/03/11 10:33:14;;;;;;;11.02;7.75;;;4.50;75.50;;;;;;5021082;28;20069;-72
2022/03/11 10:35:47;;;;;;;9.20;7.40;;;4.80;72.90;;;;;;5012441;28;20037;-71
2022/03/11 10:38:20;;;;;;;9.07;7.13;;;4.70;78.60;;;;;;5011243;28;20120;-72
2022/03/11 10:40:57;;;;;;;11.13;7.88;;;4.60;82.10;;;;;;5011108;28;20135;-74
2022/03/11 10:43:32;;;;;;;8.57;6.45;;;4.50;83.90;;;;;;5011246;28;20061;-71
2022/03/11 10:46:02;;;;;;;9.25;6.47;;;4.10;86.20;;;;;;5018696;28;20562;-75
2022/03/11 10:48:49;;;;;;;10.25;7.28;;;4.10;88.20;;;;;;5019874;28;20096;-73
2022/03/11 10:51:22;;;;;;;12.85;8.45;;;3.90;90.40;;;;;;5022607;28;20046;-72
2022/03/11 10:53:50;;;;;;;9.90;7.22;;;4.60;87.60;;;;;;5005294;28;20743;-74
2022/03/11 10:56:43;;;;;;;9.32;7.63;;;3.80;89.30;;;;;;5024399;28;20037;-74
2022/03/11 10:59:19;;;;;;;10.30;8.43;;;4.20;90.70;;;;;;5005203;28;20133;-72
2022/03/11 11:01:48;;;;;;;17.60;8.57;;;3.90;90.90;;;;;;5005038;28;20100;-74
2022/03/11 11:04:18;;;;;;;11.27;8.40;;;3.80;92.10;;;;;;5006404;28;20041;-72
2022/03/11 11:06:46;;;;;;;9.70;8.00;;;3.50;92.10;;;;;;5016964;28;20034;-75
2022/03/11 11:09:17;;;;;;;11.43;7.90;;;3.10;96.00;;;;;;5015325;28;20045;-71
2022/03/11 11:11:45;;;;;;;15.95;9.15;;;2.60;99.20;;;;;;5022779;28;20113;-76
2022/03/11 11:14:13;;;;;;;10.52;7.53;;;2.70;99.90;;;;;;5024405;28;20046;-78
2022/03/11 11:16:46;;;;;;;12.15;8.43;;;2.10;99.90;;;;;;5016832;28;20038;-73
2022/03/11 11:19:19;;;;;;;10.73;7.88;;;2.60;99.90;;;;;;5014824;28;20124;-74
2022/03/11 11:21:49;;;;;;;13.13;8.80;;;2.80;99.90;;;;;;5023199;28;20390;-76
2022/03/11 11:24:23;;;;;;;10.00;7.45;;;2.50;99.90;;;;;;5023970;28;20037;-73
2022/03/11 11:26:55;;;;;;;10.23;7.88;;;2.20;99.90;;;;;;5007585;28;20041;-72
2022/03/11 11:29:33;;;;;;;9.50;7.82;;;2.20;99.90;;;;;;5024007;28;20033;-74
2022/03/11 11:32:04;;;;;;;9.20;7.63;;;2.30;99.90;;;;;;5023862;28;20109;-75
2022/03/11 11:34:37;;;;;;;8.05;6.63;;;2.30;99.90;;;;;;5022627;28;20046;-73
2022/03/11 11:37:06;;;;;;;9.88;6.72;;;2.40;99.90;;;;;;5023233;28;20041;-75
2022/03/11 11:39:36;;;;;;;9.25;6.00;;;2.30;99.90;;;;;;5014175;28;20046;-75
2022/03/11 11:42:08;;;;;;;9.25;6.32;;;2.50;99.90;;;;;;5012844;28;20462;-74
2022/03/11 11:44:42;;;;;;;8.20;6.68;;;2.50;99.90;;;;;;5021077;28;20424;-74
2022/03/11 11:47:23;;;;;;;8.07;6.18;;;2.90;99.90;;;;;;5016046;28;20489;-73
2022/03/11 11:49:54;;;;;;;10.75;6.72;;;2.90;95.10;;;;;;5033685;28;20590;-76
2022/03/11 11:52:36;;;;;;;6.38;5.72;;;3.00;94.60;;;;;;5034245;28;20185;-72
2022/03/11 11:55:25;;;;;;;10.70;6.63;;;2.60;93.90;;;;;;5033444;28;20401;-74
2022/03/11 11:57:53;;;;;;;8.30;6.33;;;3.00;94.50;;;;;;5000099;28;20065;-70
2022/03/11 12:00:26;;;;;;;8.68;7.22;;;3.20;92.50;;;;;;5032824;28;20389;-75
2022/03/11 12:02:54;;;;;;;8.55;6.85;;;3.40;91.30;;;;;;5015663;28;20041;-72
2022/03/11 12:05:48;;;;;;;9.13;6.55;;;3.60;90.60;;;;;;5015693;28;20053;-71
2022/03/11 12:08:34;;;;;;;8.48;7.07;;;3.50;90.40;;;;;;5033483;28;20049;-74
2022/03/11 12:11:01;;;;;;;7.20;6.18;;;3.80;90.40;;;;;;5033346;28;20610;-73
2022/03/11 12:13:33;;;;;;;8.90;6.22;;;3.30;87.40;;;;;;5033294;28;20107;-79
2022/03/11 12:16:01;;;;;;;7.53;6.72;;;3.30;89.50;;;;;;5032510;28;20045;-77
2022/03/11 12:18:44;;;;;;;9.68;7.32;;;3.40;90.00;;;;;;5032924;28;20059;-73
2022/03/11 12:21:38;;;;;;;10.13;7.07;;;3.60;90.00;;;;;;5015518;28;20045;-73
2022/03/11 12:24:31;;;;;;;7.63;6.47;;;4.10;86.60;;;;;;5032845;28;20497;-74
2022/03/11 12:26:59;;;;;;;9.70;6.65;;;4.40;83.90;;;;;;5022435;28;20450;-73
2022/03/11 12:29:37;;;;;;;9.65;7.20;;;4.50;77.80;;;;;;5032364;28;20040;-72
2022/03/11 12:32:07;;;;;;;7.68;6.32;;;3.90;81.40;;;;;;5032800;28;20382;-74
2022/03/11 12:34:34;;;;;;;8.83;6.17;;;3.30;80.20;;;;;;5032616;28;20393;-79
2022/03/11 12:37:02;;;;;;;11.23;7.28;;;3.40;82.20;;;;;;5032708;28;20302;-73
2022/03/11 12:39:29;;;;;;;9.10;7.20;;;3.60;82.90;;;;;;5032660;28;20346;-77
2022/03/11 12:41:57;;;;;;;9.60;7.30;;;4.00;80.10;;;;;;5032366;28;20124;-75
2022/03/11 12:44:25;;;;;;;9.68;6.78;;;4.00;79.40;;;;;;5032329;28;20564;-73
2022/03/11 12:46:52;;;;;;;8.75;7.00;;;3.60;81.40;;;;;;5032399;28;20512;-74
2022/03/11 12:49:26;;;;;;;8.70;7.18;;;3.50;81.40;;;;;;5013835;28;20125;-74
2022/03/11 12:52:17;;;;;;;8.68;7.22;;;3.40;82.80;;;;;;5016722;28;20125;-74
2022/03/11 12:54:44;;;;;;;11.30;8.05;;;3.70;81.70;;;;;;5018671;28;20036;-74
2022/03/11 12:57:12;;;;;;;10.05;5.90;;;4.00;80.80;;;;;;5015983;28;20050;-72